sensor_id;sensor_type;location;lat;lon;timestamp;P1;durP1;ratioP1;P2;durP2;ratioP2
47812;SDS011;34221;45.296;9.516;2022-07-29T00:00:14;8.00;;;5.38;;
47812;SDS011;34221;45.296;9.516;2022-07-29T00:00:30;8.18;;;5.35;;
47812;SDS011;34221;45.296;9.516;2022-07-29T00:00:45;7.40;;;5.72;;
47812;SDS011;34221;45.296;9.516;2022-07-29T00:01:00;7.72;;;5.93;;
47812;SDS011;34221;45.296;9.516;2022-07-29T00:01:15;8.52;;;6.30;;
47812;SDS011;34221;45.296;9.516;2022-07-29T00:01:30;8.23;;;6.35;;
47812;SDS011;34221;45.296;9.516;2022-07-29T00:01:45;8.35;;;5.80;;
47812;SDS011;34221;45.296;9.516;2022-07-29T00:02:00;9.13;;;5.50;;
47812;SDS011;34221;45.296;9.516;2022-07-29T00:02:15;8.90;;;5.50;;
47812;SDS011;34221;45.296;9.516;2022-07-29T00:02:30;7.57;;;5.53;;
47812;SDS011;34221;45.296;9.516;2022-07-29T00:02:46;7.78;;;5.90;;
47812;SDS011;34221;45.296;9.516;2022-07-29T00:03:01;8.25;;;5.95;;
47812;SDS011;34221;45.296;9.516;2022-07-29T00:03:16;8.18;;;5.85;;
47812;SDS011;34221;45.296;9.516;2022-07-29T00:03:31;8.05;;;5.80;;
47812;SDS011;34221;45.296;9.516;2022-07-29T00:03:47;8.48;;;5.40;;
47812;SDS011;34221;45.296;9.516;2022-07-29T00:04:03;8.65;;;5.50;;
47812;SDS011;34221;45.296;9.516;2022-07-29T00:04:18;7.68;;;5.88;;
47812;SDS011;34221;45.296;9.516;2022-07-29T00:04:37;7.45;;;5.70;;
47812;SDS011;34221;45.296;9.516;2022-07-29T00:04:52;7.97;;;6.25;;
47812;SDS011;34221;45.296;9.516;2022-07-29T00:05:07;8.03;;;6.47;;
47812;SDS011;34221;45.296;9.516;2022-07-29T00:05:24;7.80;;;5.97;;
47812;SDS011;34221;45.296;9.516;2022-07-29T00:05:39;8.55;;;6.25;;
47812;SDS011;34221;45.296;9.516;2022-07-29T00:05:55;8.25;;;6.43;;
47812;SDS011;34221;45.296;9.516;2022-07-29T00:06:10;8.65;;;6.10;;
47812;SDS011;34221;45.296;9.516;2022-07-29T00:06:25;8.18;;;5.90;;
47812;SDS011;34221;45.296;9.516;2022-07-29T00:06:40;8.98;;;6.03;;
47812;SDS011;34221;45.296;9.516;2022-07-29T00:06:55;8.90;;;6.13;;
47812;SDS011;34221;45.296;9.516;2022-07-29T00:07:10;7.10;;;6.20;;
47812;SDS011;34221;45.296;9.516;2022-07-29T00:07:25;7.82;;;6.45;;
47812;SDS011;34221;45.296;9.516;2022-07-29T00:07:40;8.52;;;6.50;;
47812;SDS011;34221;45.296;9.516;2022-07-29T00:07:55;8.90;;;6.40;;
47812;SDS011;34221;45.296;9.516;2022-07-29T00:08:10;8.35;;;6.25;;
47812;SDS011;34221;45.296;9.516;2022-07-29T00:08:25;8.15;;;5.82;;
47812;SDS011;34221;45.296;9.516;2022-07-29T00:08:40;8.55;;;5.68;;
47812;SDS011;34221;45.296;9.516;2022-07-29T00:08:55;8.00;;;5.97;;
47812;SDS011;34221;45.296;9.516;2022-07-29T00:09:10;8.85;;;6.35;;
47812;SDS011;34221;45.296;9.516;2022-07-29T00:09:25;10.27;;;6.13;;
47812;SDS011;34221;45.296;9.516;2022-07-29T00:09:40;9.32;;;5.90;;
47812;SDS011;34221;45.296;9.516;2022-07-29T00:09:55;8.40;;;5.82;;
47812;SDS011;34221;45.296;9.516;2022-07-29T00:10:11;9.13;;;5.88;;
47812;SDS011;34221;45.296;9.516;2022-07-29T00:10:26;10.15;;;6.10;;
47812;SDS011;34221;45.296;9.516;2022-07-29T00:10:41;9.73;;;6.18;;
47812;SDS011;34221;45.296;9.516;2022-07-29T00:10:56;7.57;;;5.70;;
47812;SDS011;34221;45.296;9.516;2022-07-29T00:11:11;7.63;;;5.63;;
47812;SDS011;34221;45.296;9.516;2022-07-29T00:11:26;8.25;;;6.10;;
47812;SDS011;34221;45.296;9.516;2022-07-29T00:11:41;8.30;;;6.50;;
47812;SDS011;34221;45.296;9.516;2022-07-29T00:11:56;8.10;;;6.47;;
47812;SDS011;34221;45.296;9.516;2022-07-29T00:12:14;7.97;;;6.00;;
47812;SDS011;34221;45.296;9.516;2022-07-29T00:12:29;7.63;;;6.00;;
47812;SDS011;34221;45.296;9.516;2022-07-29T00:12:44;9.57;;;6.30;;
47812;SDS011;34221;45.296;9.516;2022-07-29T00:12:59;10.68;;;6.15;;
47812;SDS011;34221;45.296;9.516;2022-07-29T00:13:14;9.80;;;5.85;;
47812;SDS011;34221;45.296;9.516;2022-07-29T00:13:29;10.18;;;6.47;;
47812;SDS011;34221;45.296;9.516;2022-07-29T00:13:44;8.73;;;6.53;;
47812;SDS011;34221;45.296;9.516;2022-07-29T00:13:59;7.60;;;6.22;;
47812;SDS011;34221;45.296;9.516;2022-07-29T00:14:14;8.35;;;6.47;;
47812;SDS011;34221;45.296;9.516;2022-07-29T00:14:29;9.15;;;6.53;;
47812;SDS011;34221;45.296;9.516;2022-07-29T00:14:44;8.35;;;6.05;;
47812;SDS011;34221;45.296;9.516;2022-07-29T00:14:59;7.97;;;5.70;;
47812;SDS011;34221;45.296;9.516;2022-07-29T00:15:14;9.15;;;5.80;;
47812;SDS011;34221;45.296;9.516;2022-07-29T00:15:29;9.40;;;6.13;;
47812;SDS011;34221;45.296;9.516;2022-07-29T00:15:44;8.65;;;6.25;;
47812;SDS011;34221;45.296;9.516;2022-07-29T00:15:59;8.52;;;6.05;;
47812;SDS011;34221;45.296;9.516;2022-07-29T00:16:14;10.05;;;6.40;;
47812;SDS011;34221;45.296;9.516;2022-07-29T00:16:29;9.02;;;6.20;;
47812;SDS011;34221;45.296;9.516;2022-07-29T00:16:44;7.28;;;5.78;;
47812;SDS011;34221;45.296;9.516;2022-07-29T00:16:59;7.43;;;6.00;;
47812;SDS011;34221;45.296;9.516;2022-07-29T00:17:14;8.00;;;6.10;;
47812;SDS011;34221;45.296;9.516;2022-07-29T00:17:29;8.75;;;6.10;;
47812;SDS011;34221;45.296;9.516;2022-07-29T00:17:44;8.38;;;6.10;;
47812;SDS011;34221;45.296;9.516;2022-07-29T00:17:59;9.43;;;6.30;;
47812;SDS011;34221;45.296;9.516;2022-07-29T00:18:14;9.80;;;6.10;;
47812;SDS011;34221;45.296;9.516;2022-07-29T00:18:29;7.88;;;5.82;;
47812;SDS011;34221;45.296;9.516;2022-07-29T00:18:44;7.75;;;5.85;;
47812;SDS011;34221;45.296;9.516;2022-07-29T00:18:59;8.63;;;5.95;;
47812;SDS011;34221;45.296;9.516;2022-07-29T00:19:13;9.95;;;6.07;;
47812;SDS011;34221;45.296;9.516;2022-07-29T00:19:28;9.63;;;6.00;;
47812;SDS011;34221;45.296;9.516;2022-07-29T00:19:43;7.57;;;5.60;;
47812;SDS011;34221;45.296;9.516;2022-07-29T00:19:58;7.07;;;5.40;;
47812;SDS011;34221;45.296;9.516;2022-07-29T00:20:14;7.65;;;5.88;;
47812;SDS011;34221;45.296;9.516;2022-07-29T00:20:29;8.23;;;6.00;;
47812;SDS011;34221;45.296;9.516;2022-07-29T00:20:44;8.13;;;5.60;;
47812;SDS011;34221;45.296;9.516;2022-07-29T00:20:59;8.65;;;6.03;;
47812;SDS011;34221;45.296;9.516;2022-07-29T00:21:14;9.38;;;6.18;;
47812;SDS011;34221;45.296;9.516;2022-07-29T00:21:31;8.32;;;6.00;;
47812;SDS011;34221;45.296;9.516;2022-07-29T00:21:46;8.65;;;6.15;;
47812;SDS011;34221;45.296;9.516;2022-07-29T00:22:01;8.45;;;5.97;;
47812;SDS011;34221;45.296;9.516;2022-07-29T00:22:16;9.77;;;6.47;;
47812;SDS011;34221;45.296;9.516;2022-07-29T00:22:32;10.30;;;6.57;;
47812;SDS011;34221;45.296;9.516;2022-07-29T00:22:46;9.93;;;6.32;;
47812;SDS011;34221;45.296;9.516;2022-07-29T00:23:01;9.13;;;6.00;;
47812;SDS011;34221;45.296;9.516;2022-07-29T00:23:17;7.57;;;5.38;;
47812;SDS011;34221;45.296;9.516;2022-07-29T00:23:31;8.23;;;5.57;;
47812;SDS011;34221;45.296;9.516;2022-07-29T00:23:47;8.23;;;5.95;;
47812;SDS011;34221;45.296;9.516;2022-07-29T00:24:02;7.72;;;5.88;;
47812;SDS011;34221;45.296;9.516;2022-07-29T00:24:18;7.93;;;5.95;;
47812;SDS011;34221;45.296;9.516;2022-07-29T00:24:33;8.77;;;6.25;;
47812;SDS011;34221;45.296;9.516;2022-07-29T00:24:48;8.83;;;6.60;;
47812;SDS011;34221;45.296;9.516;2022-07-29T00:25:04;8.30;;;6.15;;
47812;SDS011;34221;45.296;9.516;2022-07-29T00:25:22;9.68;;;5.72;;
47812;SDS011;34221;45.296;9.516;2022-07-29T00:25:37;10.18;;;6.45;;
47812;SDS011;34221;45.296;9.516;2022-07-29T00:25:52;8.73;;;6.38;;
47812;SDS011;34221;45.296;9.516;2022-07-29T00:26:07;7.82;;;6.03;;
47812;SDS011;34221;45.296;9.516;2022-07-29T00:26:22;8.55;;;6.43;;
47812;SDS011;34221;45.296;9.516;2022-07-29T00:26:37;9.45;;;6.47;;
47812;SDS011;34221;45.296;9.516;2022-07-29T00:26:52;9.52;;;6.43;;
47812;SDS011;34221;45.296;9.516;2022-07-29T00:27:07;8.95;;;6.13;;
47812;SDS011;34221;45.296;9.516;2022-07-29T00:27:22;8.23;;;5.72;;
47812;SDS011;34221;45.296;9.516;2022-07-29T00:27:37;7.05;;;5.55;;
47812;SDS011;34221;45.296;9.516;2022-07-29T00:27:52;10.60;;;5.65;;
47812;SDS011;34221;45.296;9.516;2022-07-29T00:28:07;12.02;;;6.00;;
47812;SDS011;34221;45.296;9.516;2022-07-29T00:28:22;9.10;;;6.05;;
47812;SDS011;34221;45.296;9.516;2022-07-29T00:28:37;8.25;;;5.90;;
47812;SDS011;34221;45.296;9.516;2022-07-29T00:28:52;7.97;;;6.07;;
47812;SDS011;34221;45.296;9.516;2022-07-29T00:29:07;9.35;;;6.13;;
47812;SDS011;34221;45.296;9.516;2022-07-29T00:29:22;9.20;;;5.78;;
47812;SDS011;34221;45.296;9.516;2022-07-29T00:29:37;8.98;;;5.90;;
47812;SDS011;34221;45.296;9.516;2022-07-29T00:29:52;9.80;;;6.03;;
47812;SDS011;34221;45.296;9.516;2022-07-29T00:30:08;8.57;;;5.72;;
47812;SDS011;34221;45.296;9.516;2022-07-29T00:30:23;8.27;;;5.80;;
47812;SDS011;34221;45.296;9.516;2022-07-29T00:30:38;9.30;;;6.20;;
47812;SDS011;34221;45.296;9.516;2022-07-29T00:30:54;8.88;;;6.00;;
47812;SDS011;34221;45.296;9.516;2022-07-29T00:31:09;7.68;;;5.55;;
47812;SDS011;34221;45.296;9.516;2022-07-29T00:31:24;7.30;;;5.72;;
47812;SDS011;34221;45.296;9.516;2022-07-29T00:31:38;7.38;;;5.68;;
47812;SDS011;34221;45.296;9.516;2022-07-29T00:31:53;8.68;;;5.85;;
47812;SDS011;34221;45.296;9.516;2022-07-29T00:32:09;8.93;;;6.15;;
47812;SDS011;34221;45.296;9.516;2022-07-29T00:32:24;8.30;;;6.03;;
47812;SDS011;34221;45.296;9.516;2022-07-29T00:32:38;8.98;;;5.97;;
47812;SDS011;34221;45.296;9.516;2022-07-29T00:32:53;10.65;;;5.93;;
47812;SDS011;34221;45.296;9.516;2022-07-29T00:33:09;9.77;;;5.80;;
47812;SDS011;34221;45.296;9.516;2022-07-29T00:33:24;7.28;;;5.70;;
47812;SDS011;34221;45.296;9.516;2022-07-29T00:33:39;8.13;;;6.05;;
47812;SDS011;34221;45.296;9.516;2022-07-29T00:33:54;8.77;;;6.18;;
47812;SDS011;34221;45.296;9.516;2022-07-29T00:34:09;10.52;;;6.28;;
47812;SDS011;34221;45.296;9.516;2022-07-29T00:34:45;9.13;;;6.38;;
47812;SDS011;34221;45.296;9.516;2022-07-29T00:35:18;8.18;;;5.80;;
47812;SDS011;34221;45.296;9.516;2022-07-29T00:35:51;9.02;;;6.10;;
47812;SDS011;34221;45.296;9.516;2022-07-29T00:36:06;7.68;;;5.65;;
47812;SDS011;34221;45.296;9.516;2022-07-29T00:37:32;8.48;;;5.72;;
47812;SDS011;34221;45.296;9.516;2022-07-29T00:37:47;8.30;;;5.72;;
47812;SDS011;34221;45.296;9.516;2022-07-29T00:38:02;8.07;;;5.78;;
47812;SDS011;34221;45.296;9.516;2022-07-29T00:38:17;9.23;;;6.18;;
47812;SDS011;34221;45.296;9.516;2022-07-29T00:38:35;10.13;;;6.18;;
47812;SDS011;34221;45.296;9.516;2022-07-29T00:38:50;9.10;;;5.95;;
47812;SDS011;34221;45.296;9.516;2022-07-29T00:39:05;8.68;;;6.18;;
47812;SDS011;34221;45.296;9.516;2022-07-29T00:39:20;9.45;;;6.20;;
47812;SDS011;34221;45.296;9.516;2022-07-29T00:39:35;9.93;;;6.20;;
47812;SDS011;34221;45.296;9.516;2022-07-29T00:39:50;9.90;;;6.25;;
47812;SDS011;34221;45.296;9.516;2022-07-29T00:40:05;9.93;;;5.93;;
47812;SDS011;34221;45.296;9.516;2022-07-29T00:40:21;9.20;;;5.95;;
47812;SDS011;34221;45.296;9.516;2022-07-29T00:40:36;9.27;;;6.18;;
47812;SDS011;34221;45.296;9.516;2022-07-29T00:40:51;8.48;;;5.90;;
47812;SDS011;34221;45.296;9.516;2022-07-29T00:41:06;7.80;;;5.88;;
47812;SDS011;34221;45.296;9.516;2022-07-29T00:41:21;8.27;;;6.05;;
47812;SDS011;34221;45.296;9.516;2022-07-29T00:41:36;7.53;;;5.68;;
47812;SDS011;34221;45.296;9.516;2022-07-29T00:41:51;9.63;;;5.93;;
47812;SDS011;34221;45.296;9.516;2022-07-29T00:42:06;11.57;;;6.32;;
47812;SDS011;34221;45.296;9.516;2022-07-29T00:42:22;9.45;;;6.35;;
47812;SDS011;34221;45.296;9.516;2022-07-29T00:42:46;8.32;;;6.40;;
47812;SDS011;34221;45.296;9.516;2022-07-29T00:43:04;9.90;;;6.03;;
47812;SDS011;34221;45.296;9.516;2022-07-29T00:43:19;10.60;;;5.80;;
47812;SDS011;34221;45.296;9.516;2022-07-29T00:43:34;11.67;;;6.27;;
47812;SDS011;34221;45.296;9.516;2022-07-29T00:43:49;10.95;;;6.22;;
47812;SDS011;34221;45.296;9.516;2022-07-29T00:44:04;8.95;;;6.30;;
47812;SDS011;34221;45.296;9.516;2022-07-29T00:44:19;10.02;;;6.60;;
47812;SDS011;34221;45.296;9.516;2022-07-29T00:44:37;9.45;;;6.35;;
47812;SDS011;34221;45.296;9.516;2022-07-29T00:44:55;7.03;;;6.00;;
47812;SDS011;34221;45.296;9.516;2022-07-29T00:45:10;8.60;;;6.13;;
47812;SDS011;34221;45.296;9.516;2022-07-29T00:45:26;10.00;;;6.18;;
47812;SDS011;34221;45.296;9.516;2022-07-29T00:45:41;9.27;;;6.07;;
47812;SDS011;34221;45.296;9.516;2022-07-29T00:45:56;8.63;;;6.10;;
47812;SDS011;34221;45.296;9.516;2022-07-29T00:46:11;8.75;;;6.20;;
47812;SDS011;34221;45.296;9.516;2022-07-29T00:46:26;9.50;;;6.32;;
47812;SDS011;34221;45.296;9.516;2022-07-29T00:46:41;9.40;;;6.60;;
47812;SDS011;34221;45.296;9.516;2022-07-29T00:46:56;8.93;;;6.30;;
47812;SDS011;34221;45.296;9.516;2022-07-29T00:47:11;8.13;;;5.85;;
47812;SDS011;34221;45.296;9.516;2022-07-29T00:47:27;9.00;;;6.13;;
47812;SDS011;34221;45.296;9.516;2022-07-29T00:47:42;9.98;;;6.47;;
47812;SDS011;34221;45.296;9.516;2022-07-29T00:47:57;9.98;;;6.38;;
47812;SDS011;34221;45.296;9.516;2022-07-29T00:48:12;10.40;;;6.10;;
47812;SDS011;34221;45.296;9.516;2022-07-29T00:48:28;9.45;;;5.75;;
47812;SDS011;34221;45.296;9.516;2022-07-29T00:48:43;9.13;;;5.88;;
47812;SDS011;34221;45.296;9.516;2022-07-29T00:48:58;9.38;;;6.28;;
47812;SDS011;34221;45.296;9.516;2022-07-29T00:49:13;8.37;;;6.20;;
47812;SDS011;34221;45.296;9.516;2022-07-29T00:49:28;8.75;;;6.20;;
47812;SDS011;34221;45.296;9.516;2022-07-29T00:49:43;9.60;;;6.57;;
47812;SDS011;34221;45.296;9.516;2022-07-29T00:49:58;9.30;;;6.63;;
47812;SDS011;34221;45.296;9.516;2022-07-29T00:50:13;11.07;;;6.57;;
47812;SDS011;34221;45.296;9.516;2022-07-29T00:50:28;10.98;;;6.07;;
47812;SDS011;34221;45.296;9.516;2022-07-29T00:50:43;8.85;;;5.72;;
47812;SDS011;34221;45.296;9.516;2022-07-29T00:50:59;8.52;;;6.15;;
47812;SDS011;34221;45.296;9.516;2022-07-29T00:51:16;9.18;;;6.57;;
47812;SDS011;34221;45.296;9.516;2022-07-29T00:51:31;10.07;;;6.35;;
47812;SDS011;34221;45.296;9.516;2022-07-29T00:51:46;10.25;;;6.20;;
47812;SDS011;34221;45.296;9.516;2022-07-29T00:52:04;10.35;;;6.72;;
47812;SDS011;34221;45.296;9.516;2022-07-29T00:52:20;11.07;;;6.93;;
47812;SDS011;34221;45.296;9.516;2022-07-29T00:52:36;10.15;;;6.93;;
47812;SDS011;34221;45.296;9.516;2022-07-29T00:52:53;9.98;;;7.10;;
47812;SDS011;34221;45.296;9.516;2022-07-29T00:53:08;8.93;;;6.57;;
47812;SDS011;34221;45.296;9.516;2022-07-29T00:53:26;8.30;;;6.00;;
47812;SDS011;34221;45.296;9.516;2022-07-29T00:53:41;9.05;;;6.20;;
47812;SDS011;34221;45.296;9.516;2022-07-29T00:53:56;9.50;;;6.28;;
47812;SDS011;34221;45.296;9.516;2022-07-29T00:54:11;9.45;;;6.20;;
47812;SDS011;34221;45.296;9.516;2022-07-29T00:54:27;10.18;;;6.05;;
47812;SDS011;34221;45.296;9.516;2022-07-29T00:54:43;10.63;;;6.38;;
47812;SDS011;34221;45.296;9.516;2022-07-29T00:54:58;9.02;;;6.28;;
47812;SDS011;34221;45.296;9.516;2022-07-29T00:55:14;8.55;;;6.03;;
47812;SDS011;34221;45.296;9.516;2022-07-29T00:55:30;8.60;;;5.85;;
47812;SDS011;34221;45.296;9.516;2022-07-29T00:55:45;8.93;;;5.80;;
47812;SDS011;34221;45.296;9.516;2022-07-29T00:56:00;9.60;;;5.97;;
47812;SDS011;34221;45.296;9.516;2022-07-29T00:56:15;10.73;;;6.40;;
47812;SDS011;34221;45.296;9.516;2022-07-29T00:56:30;9.48;;;6.18;;
47812;SDS011;34221;45.296;9.516;2022-07-29T00:56:46;9.18;;;5.97;;
47812;SDS011;34221;45.296;9.516;2022-07-29T00:57:01;11.10;;;6.85;;
47812;SDS011;34221;45.296;9.516;2022-07-29T00:57:16;9.77;;;6.53;;
47812;SDS011;34221;45.296;9.516;2022-07-29T00:57:31;8.53;;;5.87;;
47812;SDS011;34221;45.296;9.516;2022-07-29T00:57:47;8.93;;;5.88;;
47812;SDS011;34221;45.296;9.516;2022-07-29T00:58:03;8.65;;;5.63;;
47812;SDS011;34221;45.296;9.516;2022-07-29T00:58:18;9.95;;;5.97;;
47812;SDS011;34221;45.296;9.516;2022-07-29T00:58:33;10.13;;;5.97;;
47812;SDS011;34221;45.296;9.516;2022-07-29T00:58:48;8.15;;;5.60;;
47812;SDS011;34221;45.296;9.516;2022-07-29T00:59:05;8.15;;;6.10;;
47812;SDS011;34221;45.296;9.516;2022-07-29T00:59:20;8.63;;;6.32;;
47812;SDS011;34221;45.296;9.516;2022-07-29T00:59:35;9.05;;;6.13;;
47812;SDS011;34221;45.296;9.516;2022-07-29T00:59:50;9.55;;;6.03;;
47812;SDS011;34221;45.296;9.516;2022-07-29T01:00:06;10.32;;;5.95;;
47812;SDS011;34221;45.296;9.516;2022-07-29T01:00:26;10.63;;;5.93;;
47812;SDS011;34221;45.296;9.516;2022-07-29T01:00:42;9.98;;;5.78;;
47812;SDS011;34221;45.296;9.516;2022-07-29T01:00:57;8.73;;;5.55;;
47812;SDS011;34221;45.296;9.516;2022-07-29T01:01:12;7.28;;;5.50;;
47812;SDS011;34221;45.296;9.516;2022-07-29T01:01:27;7.55;;;5.75;;
47812;SDS011;34221;45.296;9.516;2022-07-29T01:01:42;8.13;;;5.88;;
47812;SDS011;34221;45.296;9.516;2022-07-29T01:01:57;8.38;;;5.55;;
47812;SDS011;34221;45.296;9.516;2022-07-29T01:02:12;7.50;;;5.38;;
47812;SDS011;34221;45.296;9.516;2022-07-29T01:02:27;7.60;;;5.68;;
47812;SDS011;34221;45.296;9.516;2022-07-29T01:02:42;8.05;;;6.10;;
47812;SDS011;34221;45.296;9.516;2022-07-29T01:02:58;11.45;;;6.38;;
47812;SDS011;34221;45.296;9.516;2022-07-29T01:03:13;11.43;;;6.05;;
47812;SDS011;34221;45.296;9.516;2022-07-29T01:03:28;7.95;;;5.65;;
47812;SDS011;34221;45.296;9.516;2022-07-29T01:03:43;8.07;;;5.50;;
47812;SDS011;34221;45.296;9.516;2022-07-29T01:03:58;9.88;;;5.68;;
47812;SDS011;34221;45.296;9.516;2022-07-29T01:04:13;10.50;;;5.90;;
47812;SDS011;34221;45.296;9.516;2022-07-29T01:04:28;9.18;;;5.90;;
47812;SDS011;34221;45.296;9.516;2022-07-29T01:04:45;9.98;;;5.65;;
47812;SDS011;34221;45.296;9.516;2022-07-29T01:05:00;9.27;;;5.53;;
47812;SDS011;34221;45.296;9.516;2022-07-29T01:05:20;8.15;;;6.15;;
47812;SDS011;34221;45.296;9.516;2022-07-29T01:05:38;8.45;;;6.25;;
47812;SDS011;34221;45.296;9.516;2022-07-29T01:05:53;9.15;;;6.20;;
47812;SDS011;34221;45.296;9.516;2022-07-29T01:06:09;10.15;;;6.20;;
47812;SDS011;34221;45.296;9.516;2022-07-29T01:06:24;8.80;;;5.95;;
47812;SDS011;34221;45.296;9.516;2022-07-29T01:06:39;8.90;;;5.93;;
47812;SDS011;34221;45.296;9.516;2022-07-29T01:06:54;9.05;;;5.82;;
47812;SDS011;34221;45.296;9.516;2022-07-29T01:07:09;8.95;;;5.70;;
47812;SDS011;34221;45.296;9.516;2022-07-29T01:07:25;9.27;;;5.93;;
47812;SDS011;34221;45.296;9.516;2022-07-29T01:07:41;8.95;;;6.13;;
47812;SDS011;34221;45.296;9.516;2022-07-29T01:07:56;8.38;;;6.38;;
47812;SDS011;34221;45.296;9.516;2022-07-29T01:08:12;8.30;;;6.22;;
47812;SDS011;34221;45.296;9.516;2022-07-29T01:08:29;10.02;;;6.47;;
47812;SDS011;34221;45.296;9.516;2022-07-29T01:08:46;11.60;;;7.05;;
47812;SDS011;34221;45.296;9.516;2022-07-29T01:09:03;11.57;;;6.85;;
47812;SDS011;34221;45.296;9.516;2022-07-29T01:09:18;12.25;;;6.88;;
47812;SDS011;34221;45.296;9.516;2022-07-29T01:09:33;11.73;;;6.90;;
47812;SDS011;34221;45.296;9.516;2022-07-29T01:09:49;9.17;;;6.77;;
47812;SDS011;34221;45.296;9.516;2022-07-29T01:10:06;10.13;;;7.15;;
47812;SDS011;34221;45.296;9.516;2022-07-29T01:10:24;8.80;;;7.30;;
47812;SDS011;34221;45.296;9.516;2022-07-29T01:10:40;8.77;;;7.03;;
47812;SDS011;34221;45.296;9.516;2022-07-29T01:10:56;9.50;;;6.82;;
47812;SDS011;34221;45.296;9.516;2022-07-29T01:11:11;9.88;;;6.82;;
47812;SDS011;34221;45.296;9.516;2022-07-29T01:11:27;9.75;;;6.60;;
47812;SDS011;34221;45.296;9.516;2022-07-29T01:11:42;11.25;;;6.90;;
47812;SDS011;34221;45.296;9.516;2022-07-29T01:12:00;10.25;;;6.95;;
47812;SDS011;34221;45.296;9.516;2022-07-29T01:12:17;8.10;;;6.30;;
47812;SDS011;34221;45.296;9.516;2022-07-29T01:12:36;8.38;;;6.50;;
47812;SDS011;34221;45.296;9.516;2022-07-29T01:12:52;8.70;;;6.50;;
47812;SDS011;34221;45.296;9.516;2022-07-29T01:13:11;9.02;;;6.80;;
47812;SDS011;34221;45.296;9.516;2022-07-29T01:13:27;9.55;;;6.60;;
47812;SDS011;34221;45.296;9.516;2022-07-29T01:13:44;9.25;;;6.28;;
47812;SDS011;34221;45.296;9.516;2022-07-29T01:14:01;8.23;;;6.30;;
47812;SDS011;34221;45.296;9.516;2022-07-29T01:14:17;8.23;;;6.28;;
47812;SDS011;34221;45.296;9.516;2022-07-29T01:14:35;8.35;;;6.10;;
47812;SDS011;34221;45.296;9.516;2022-07-29T01:14:52;9.23;;;6.05;;
47812;SDS011;34221;45.296;9.516;2022-07-29T01:15:09;14.40;;;6.40;;
47812;SDS011;34221;45.296;9.516;2022-07-29T01:15:25;13.75;;;6.45;;
47812;SDS011;34221;45.296;9.516;2022-07-29T01:15:43;8.63;;;6.20;;
47812;SDS011;34221;45.296;9.516;2022-07-29T01:16:08;8.10;;;6.20;;
47812;SDS011;34221;45.296;9.516;2022-07-29T01:16:59;8.07;;;5.75;;
47812;SDS011;34221;45.296;9.516;2022-07-29T01:17:49;10.60;;;6.47;;
47812;SDS011;34221;45.296;9.516;2022-07-29T01:18:41;7.70;;;6.07;;
47812;SDS011;34221;45.296;9.516;2022-07-29T01:19:06;10.43;;;5.97;;
47812;SDS011;34221;45.296;9.516;2022-07-29T01:19:45;8.68;;;6.03;;
47812;SDS011;34221;45.296;9.516;2022-07-29T01:20:55;9.80;;;6.18;;
47812;SDS011;34221;45.296;9.516;2022-07-29T01:21:53;8.98;;;5.85;;
47812;SDS011;34221;45.296;9.516;2022-07-29T01:26:33;9.35;;;5.63;;
47812;SDS011;34221;45.296;9.516;2022-07-29T01:27:04;7.88;;;5.90;;
47812;SDS011;34221;45.296;9.516;2022-07-29T01:29:17;8.75;;;6.05;;
47812;SDS011;34221;45.296;9.516;2022-07-29T01:29:44;8.48;;;6.00;;
47812;SDS011;34221;45.296;9.516;2022-07-29T01:30:03;7.43;;;5.67;;
47812;SDS011;34221;45.296;9.516;2022-07-29T01:30:20;8.07;;;5.57;;
47812;SDS011;34221;45.296;9.516;2022-07-29T01:30:37;8.15;;;5.53;;
47812;SDS011;34221;45.296;9.516;2022-07-29T01:30:53;7.95;;;5.93;;
47812;SDS011;34221;45.296;9.516;2022-07-29T01:31:09;8.52;;;5.97;;
47812;SDS011;34221;45.296;9.516;2022-07-29T01:32:08;8.13;;;5.50;;
47812;SDS011;34221;45.296;9.516;2022-07-29T01:32:13;10.73;;;6.07;;
47812;SDS011;34221;45.296;9.516;2022-07-29T01:32:37;10.20;;;5.95;;
47812;SDS011;34221;45.296;9.516;2022-07-29T01:32:54;8.55;;;5.85;;
47812;SDS011;34221;45.296;9.516;2022-07-29T01:33:15;7.78;;;5.47;;
47812;SDS011;34221;45.296;9.516;2022-07-29T01:33:52;7.50;;;5.80;;
47812;SDS011;34221;45.296;9.516;2022-07-29T01:34:19;7.60;;;5.63;;
47812;SDS011;34221;45.296;9.516;2022-07-29T01:35:35;7.30;;;5.45;;
47812;SDS011;34221;45.296;9.516;2022-07-29T01:35:54;6.80;;;5.35;;
47812;SDS011;34221;45.296;9.516;2022-07-29T01:36:10;9.03;;;5.77;;
47812;SDS011;34221;45.296;9.516;2022-07-29T01:37:13;8.32;;;5.80;;
47812;SDS011;34221;45.296;9.516;2022-07-29T01:38:14;8.73;;;5.35;;
47812;SDS011;34221;45.296;9.516;2022-07-29T01:38:35;8.45;;;5.38;;
47812;SDS011;34221;45.296;9.516;2022-07-29T01:39:04;7.80;;;5.10;;
47812;SDS011;34221;45.296;9.516;2022-07-29T01:39:32;7.80;;;5.57;;
47812;SDS011;34221;45.296;9.516;2022-07-29T01:39:51;8.98;;;5.70;;
47812;SDS011;34221;45.296;9.516;2022-07-29T01:40:11;8.85;;;5.38;;
47812;SDS011;34221;45.296;9.516;2022-07-29T01:41:09;7.38;;;5.38;;
47812;SDS011;34221;45.296;9.516;2022-07-29T01:41:31;7.45;;;5.55;;
47812;SDS011;34221;45.296;9.516;2022-07-29T01:41:51;7.38;;;5.22;;
47812;SDS011;34221;45.296;9.516;2022-07-29T01:42:50;8.55;;;5.38;;
47812;SDS011;34221;45.296;9.516;2022-07-29T01:43:09;8.48;;;5.38;;
47812;SDS011;34221;45.296;9.516;2022-07-29T01:43:30;8.33;;;5.70;;
47812;SDS011;34221;45.296;9.516;2022-07-29T01:44:01;7.90;;;6.00;;
47812;SDS011;34221;45.296;9.516;2022-07-29T01:44:34;8.20;;;5.55;;
47812;SDS011;34221;45.296;9.516;2022-07-29T01:45:06;8.13;;;5.90;;
47812;SDS011;34221;45.296;9.516;2022-07-29T01:46:05;8.27;;;6.20;;
47812;SDS011;34221;45.296;9.516;2022-07-29T01:47:10;8.40;;;6.13;;
47812;SDS011;34221;45.296;9.516;2022-07-29T01:47:11;7.30;;;5.38;;
47812;SDS011;34221;45.296;9.516;2022-07-29T01:47:37;7.30;;;5.15;;
47812;SDS011;34221;45.296;9.516;2022-07-29T01:48:12;9.38;;;5.85;;
47812;SDS011;34221;45.296;9.516;2022-07-29T01:48:45;7.60;;;5.50;;
47812;SDS011;34221;45.296;9.516;2022-07-29T01:49:08;7.47;;;5.18;;
47812;SDS011;34221;45.296;9.516;2022-07-29T01:49:30;7.38;;;5.30;;
47812;SDS011;34221;45.296;9.516;2022-07-29T01:49:50;7.68;;;5.50;;
47812;SDS011;34221;45.296;9.516;2022-07-29T01:50:10;7.45;;;5.32;;
47812;SDS011;34221;45.296;9.516;2022-07-29T01:50:31;8.15;;;5.68;;
47812;SDS011;34221;45.296;9.516;2022-07-29T01:50:50;9.32;;;5.80;;
47812;SDS011;34221;45.296;9.516;2022-07-29T01:51:20;7.93;;;5.50;;
47812;SDS011;34221;45.296;9.516;2022-07-29T01:52:10;8.57;;;5.78;;
47812;SDS011;34221;45.296;9.516;2022-07-29T01:52:31;8.93;;;5.85;;
47812;SDS011;34221;45.296;9.516;2022-07-29T01:52:55;6.60;;;5.25;;
47812;SDS011;34221;45.296;9.516;2022-07-29T01:53:15;7.57;;;5.45;;
47812;SDS011;34221;45.296;9.516;2022-07-29T01:53:47;7.85;;;5.30;;
47812;SDS011;34221;45.296;9.516;2022-07-29T01:54:58;7.80;;;5.30;;
47812;SDS011;34221;45.296;9.516;2022-07-29T01:55:24;8.75;;;5.63;;
47812;SDS011;34221;45.296;9.516;2022-07-29T01:55:53;8.68;;;5.57;;
47812;SDS011;34221;45.296;9.516;2022-07-29T01:56:11;7.85;;;5.47;;
47812;SDS011;34221;45.296;9.516;2022-07-29T01:56:27;7.10;;;5.40;;
47812;SDS011;34221;45.296;9.516;2022-07-29T01:56:45;9.13;;;5.47;;
47812;SDS011;34221;45.296;9.516;2022-07-29T01:57:04;10.57;;;5.78;;
47812;SDS011;34221;45.296;9.516;2022-07-29T01:57:26;8.80;;;5.68;;
47812;SDS011;34221;45.296;9.516;2022-07-29T01:57:45;9.23;;;5.75;;
47812;SDS011;34221;45.296;9.516;2022-07-29T01:58:03;9.25;;;5.47;;
47812;SDS011;34221;45.296;9.516;2022-07-29T01:58:20;8.93;;;5.13;;
47812;SDS011;34221;45.296;9.516;2022-07-29T01:58:36;7.57;;;4.97;;
47812;SDS011;34221;45.296;9.516;2022-07-29T01:58:54;6.90;;;5.35;;
47812;SDS011;34221;45.296;9.516;2022-07-29T01:59:11;7.03;;;5.60;;
47812;SDS011;34221;45.296;9.516;2022-07-29T01:59:26;7.97;;;5.75;;